Time;durP1;ratioP1;P1;durP2;ratioP2;P2;SDS_P1;SDS_P2;PMS_P1;PMS_P2;Temp;Humidity;BMP_temperature;BMP_pressure;BME280_temperature;BME280_humidity;BME280_pressure;Samples;Min_cycle;Max_cycle;Signal;HPM_P1;HPM_P2
2023/07/29 00:00:06;;;;;;;;;;;22.70;87.70;;;;;;4187362;28;20009;-47
2023/07/29 00:02:52;;;;;;;;;;;22.70;87.70;;;;;;4184993;28;19944;-46
2023/07/29 00:05:32;;;;;;;;;;;22.70;88.50;;;;;;4173544;28;20334;-47
2023/07/29 00:08:13;;;;;;;;;;;22.70;87.80;;;;;;4171812;28;19935;-43
2023/07/29 00:10:55;;;;;;;;;;;22.70;87.70;;;;;;4172222;28;20067;-46
2023/07/29 00:13:36;;;;;;;;;;;22.70;87.80;;;;;;4158893;28;20474;-44
2023/07/29 00:16:17;;;;;;;;;;;22.70;87.80;;;;;;4172455;28;19932;-44
2023/07/29 00:18:57;;;;;;;;;;;22.70;87.90;;;;;;4171109;28;19936;-44
2023/07/29 00:21:38;;;;;;;;;;;22.70;87.90;;;;;;4171153;28;20299;-47
2023/07/29 00:24:19;;;;;;;;;;;22.70;88.80;;;;;;4163495;28;20060;-43
2023/07/29 00:27:01;;;;;;;;;;;22.70;87.90;;;;;;4188663;28;19935;-51
2023/07/29 00:29:42;;;;;;;;;;;22.60;87.90;;;;;;4187837;28;19932;-54
2023/07/29 00:32:23;;;;;;;;;;;22.60;88.00;;;;;;4175719;28;19954;-55
2023/07/29 00:35:04;;;;;;;;;;;22.60;88.00;;;;;;4165614;28;20398;-54
2023/07/29 00:37:45;;;;;;;;;;;22.70;88.10;;;;;;4170748;28;19981;-55
2023/07/29 00:40:28;;;;;;;;;;;22.70;89.00;;;;;;4187087;28;20065;-54
2023/07/29 00:43:10;;;;;;;;;;;22.70;88.10;;;;;;4177044;28;20018;-45
2023/07/29 00:45:51;;;;;;;;;;;22.70;88.20;;;;;;4171000;28;20015;-48
2023/07/29 00:48:32;;;;;;;;;;;22.70;88.20;;;;;;4158456;28;19931;-54
2023/07/29 00:51:12;;;;;;;;;;;22.60;88.10;;;;;;4155883;28;20284;-53
2023/07/29 00:53:53;;;;;;;;;;;22.60;88.20;;;;;;4169624;28;19946;-52
2023/07/29 00:56:34;;;;;;;;;;;22.60;88.20;;;;;;4171255;28;19943;-51
2023/07/29 00:59:17;;;;;;;;;;;22.60;88.20;;;;;;4155450;28;19940;-52
2023/07/29 01:01:58;;;;;;;;;;;22.60;88.20;;;;;;4158657;28;19940;-52
2023/07/29 01:04:38;;;;;;;;;;;22.60;88.30;;;;;;4183145;28;19935;-53
2023/07/29 01:07:22;;;;;;;;;;;22.60;88.30;;;;;;4171131;28;19932;-49
2023/07/29 01:10:05;;;;;;;;;;;22.60;88.30;;;;;;4158109;28;19932;-51
2023/07/29 01:12:49;;;;;;;;;;;22.60;89.20;;;;;;4173065;28;19931;-58
2023/07/29 01:15:34;;;;;;;;;;;22.60;88.30;;;;;;4186894;28;20491;-54
2023/07/29 01:18:19;;;;;;;;;;;22.60;89.30;;;;;;4187345;28;19931;-51
2023/07/29 01:21:00;;;;;;;;;;;22.60;88.40;;;;;;4163729;28;19932;-52
2023/07/29 01:23:42;;;;;;;;;;;22.60;88.40;;;;;;4174930;28;19936;-53
2023/07/29 01:26:23;;;;;;;;;;;22.60;88.40;;;;;;4152040;28;19940;-51
2023/07/29 01:29:03;;;;;;;;;;;22.60;88.40;;;;;;4185597;28;20397;-52
2023/07/29 01:31:46;;;;;;;;;;;22.60;88.50;;;;;;4169703;28;19932;-51
2023/07/29 01:34:29;;;;;;;;;;;22.60;88.40;;;;;;4169582;28;19963;-56
2023/07/29 01:37:13;;;;;;;;;;;22.60;88.40;;;;;;4185602;28;19935;-49
2023/07/29 01:39:57;;;;;;;;;;;22.60;88.40;;;;;;4186929;28;19935;-48
2023/07/29 01:42:38;;;;;;;;;;;22.60;88.40;;;;;;4173745;28;19932;-52
2023/07/29 01:45:19;;;;;;;;;;;22.50;88.40;;;;;;4154013;28;20011;-50
2023/07/29 01:48:00;;;;;;;;;;;22.60;88.50;;;;;;4137334;28;19936;-51
2023/07/29 01:50:41;;;;;;;;;;;22.50;88.40;;;;;;4152129;28;19936;-48
2023/07/29 01:53:22;;;;;;;;;;;22.50;88.50;;;;;;4174586;28;20509;-50
2023/07/29 01:56:04;;;;;;;;;;;22.50;88.50;;;;;;4174210;28;19954;-50
2023/07/29 01:58:46;;;;;;;;;;;22.50;88.50;;;;;;4163095;28;20018;-51
2023/07/29 02:01:27;;;;;;;;;;;22.50;88.50;;;;;;4169329;28;20343;-52
2023/07/29 02:04:08;;;;;;;;;;;22.50;88.50;;;;;;4169173;28;19936;-45
2023/07/29 02:06:48;;;;;;;;;;;22.50;88.50;;;;;;4168894;28;19932;-44
2023/07/29 02:09:30;;;;;;;;;;;22.50;88.50;;;;;;4170346;28;20399;-47
2023/07/29 02:12:13;;;;;;;;;;;22.50;88.60;;;;;;4157348;28;20361;-45
2023/07/29 02:14:53;;;;;;;;;;;22.50;88.60;;;;;;4169960;28;19939;-45
2023/07/29 02:17:35;;;;;;;;;;;22.50;89.40;;;;;;4168980;28;20079;-46
2023/07/29 02:20:16;;;;;;;;;;;22.50;88.50;;;;;;4154703;28;19932;-43
2023/07/29 02:22:57;;;;;;;;;;;22.40;88.50;;;;;;4157977;28;19975;-46
2023/07/29 02:25:38;;;;;;;;;;;22.40;89.40;;;;;;4149853;28;20000;-44
2023/07/29 02:28:20;;;;;;;;;;;22.40;88.50;;;;;;4174783;28;19980;-46
2023/07/29 02:31:10;;;;;;;;;;;22.40;88.50;;;;;;4176945;28;19931;-44
2023/07/29 02:33:51;;;;;;;;;;;22.40;88.50;;;;;;4186676;28;19935;-43
2023/07/29 02:36:33;;;;;;;;;;;22.40;88.50;;;;;;4165159;28;19936;-46
2023/07/29 02:39:13;;;;;;;;;;;22.40;88.50;;;;;;4169249;28;20437;-45
2023/07/29 02:41:55;;;;;;;;;;;22.40;88.60;;;;;;4158059;28;20391;-43
2023/07/29 02:44:37;;;;;;;;;;;22.40;88.50;;;;;;4156818;28;19940;-42
2023/07/29 02:47:18;;;;;;;;;;;22.40;88.60;;;;;;4178046;28;20082;-45
2023/07/29 02:49:58;;;;;;;;;;;22.40;88.50;;;;;;4155718;28;19951;-44
2023/07/29 02:52:39;;;;;;;;;;;22.40;88.60;;;;;;4186407;28;19932;-44
2023/07/29 02:55:20;;;;;;;;;;;22.30;88.40;;;;;;4167254;28;19936;-43
2023/07/29 02:58:01;;;;;;;;;;;22.40;88.60;;;;;;4173155;28;19974;-42
2023/07/29 03:00:43;;;;;;;;;;;22.40;88.60;;;;;;4171498;28;19932;-48
2023/07/29 03:03:24;;;;;;;;;;;22.30;88.50;;;;;;4156640;28;19936;-42
2023/07/29 03:06:06;;;;;;;;;;;22.30;88.40;;;;;;4142966;28;20067;-41
2023/07/29 03:08:47;;;;;;;;;;;22.30;88.50;;;;;;4155770;28;20034;-44
2023/07/29 03:11:28;;;;;;;;;;;22.30;89.30;;;;;;4155394;28;19990;-44
2023/07/29 03:14:09;;;;;;;;;;;22.30;88.50;;;;;;4155052;28;20320;-42
2023/07/29 03:16:51;;;;;;;;;;;22.30;88.50;;;;;;4155933;28;19932;-42
2023/07/29 03:19:31;;;;;;;;;;;22.30;88.50;;;;;;4160909;28;20442;-52
2023/07/29 03:22:13;;;;;;;;;;;22.30;88.50;;;;;;4159875;28;20303;-45
2023/07/29 03:24:53;;;;;;;;;;;22.30;88.50;;;;;;4171983;28;20523;-43
2023/07/29 03:27:36;;;;;;;;;;;22.30;88.50;;;;;;4157261;28;19932;-48
2023/07/29 03:30:19;;;;;;;;;;;22.30;88.50;;;;;;4171399;28;19932;-44
2023/07/29 03:33:02;;;;;;;;;;;22.30;88.50;;;;;;4148262;28;19936;-54
2023/07/29 03:35:44;;;;;;;;;;;22.30;88.50;;;;;;4159842;28;20131;-47
2023/07/29 03:38:25;;;;;;;;;;;22.30;88.50;;;;;;4172698;28;19932;-50
2023/07/29 03:41:05;;;;;;;;;;;22.30;88.50;;;;;;4143862;28;19931;-50
2023/07/29 03:43:46;;;;;;;;;;;22.30;88.50;;;;;;4155178;28;19936;-54
2023/07/29 03:46:27;;;;;;;;;;;22.30;88.50;;;;;;4167860;28;20387;-50
2023/07/29 03:49:09;;;;;;;;;;;22.30;88.60;;;;;;4167513;28;19951;-54
2023/07/29 03:51:50;;;;;;;;;;;22.20;88.50;;;;;;4177222;28;20398;-53
2023/07/29 03:54:31;;;;;;;;;;;22.20;88.60;;;;;;4155539;28;19932;-51
2023/07/29 03:57:12;;;;;;;;;;;22.20;88.50;;;;;;4170972;28;20018;-52
2023/07/29 03:59:54;;;;;;;;;;;22.20;89.40;;;;;;4169761;28;19932;-50
2023/07/29 04:02:37;;;;;;;;;;;22.20;88.60;;;;;;4171252;28;19932;-50
2023/07/29 04:05:19;;;;;;;;;;;22.20;88.50;;;;;;4170055;28;19936;-44
2023/07/29 04:08:01;;;;;;;;;;;22.20;89.40;;;;;;4169829;28;19940;-46
2023/07/29 04:10:42;;;;;;;;;;;22.20;88.50;;;;;;4159034;28;20067;-45
2023/07/29 04:13:22;;;;;;;;;;;22.20;88.50;;;;;;4159371;28;19936;-45
2023/07/29 04:16:03;;;;;;;;;;;22.20;89.50;;;;;;4171998;28;20276;-42
2023/07/29 04:18:44;;;;;;;;;;;22.20;88.60;;;;;;4171539;28;19936;-43
2023/07/29 04:21:27;;;;;;;;;;;22.10;88.50;;;;;;4171445;28;19994;-45
2023/07/29 04:24:07;;;;;;;;;;;22.10;88.60;;;;;;4170626;28;19932;-47
2023/07/29 04:26:48;;;;;;;;;;;22.10;88.50;;;;;;4154255;28;19956;-44
2023/07/29 04:29:29;;;;;;;;;;;22.20;88.50;;;;;;4153570;28;19983;-44
2023/07/29 04:32:10;;;;;;;;;;;22.20;88.50;;;;;;4152143;28;19978;-46
2023/07/29 04:34:51;;;;;;;;;;;22.10;88.50;;;;;;4171469;28;19936;-46
2023/07/29 04:37:33;;;;;;;;;;;22.10;88.50;;;;;;4171017;28;19940;-45
2023/07/29 04:40:14;;;;;;;;;;;22.10;88.40;;;;;;4170991;28;19947;-43
2023/07/29 04:42:54;;;;;;;;;;;22.10;88.40;;;;;;4151286;28;19978;-44
2023/07/29 04:45:35;;;;;;;;;;;22.10;88.40;;;;;;4175328;28;20351;-42
2023/07/29 04:48:16;;;;;;;;;;;22.10;88.50;;;;;;4162133;28;19932;-42
2023/07/29 04:50:57;;;;;;;;;;;22.10;88.40;;;;;;4170388;28;19935;-50
2023/07/29 04:53:39;;;;;;;;;;;22.10;88.40;;;;;;4179970;28;20312;-44
2023/07/29 04:56:20;;;;;;;;;;;22.10;88.40;;;;;;4168980;28;20433;-43
2023/07/29 04:59:01;;;;;;;;;;;22.10;89.20;;;;;;4154982;28;19936;-46
2023/07/29 05:01:43;;;;;;;;;;;22.10;88.30;;;;;;4169300;28;19978;-42
2023/07/29 05:04:24;;;;;;;;;;;22.20;88.30;;;;;;4154634;28;19935;-44
2023/07/29 05:07:05;;;;;;;;;;;22.10;88.20;;;;;;4170215;28;20390;-46
2023/07/29 05:09:48;;;;;;;;;;;22.10;88.20;;;;;;4169538;28;20311;-46
2023/07/29 05:12:29;;;;;;;;;;;22.20;88.20;;;;;;4170238;28;19931;-46
2023/07/29 05:15:10;;;;;;;;;;;22.20;89.00;;;;;;4154266;28;19932;-44
2023/07/29 05:17:52;;;;;;;;;;;22.20;88.10;;;;;;4162790;28;19935;-47
2023/07/29 05:20:32;;;;;;;;;;;22.20;88.00;;;;;;4170584;28;20291;-44
2023/07/29 05:23:15;;;;;;;;;;;22.20;88.10;;;;;;4170481;28;20477;-45
2023/07/29 05:25:57;;;;;;;;;;;22.20;88.00;;;;;;4167659;28;19931;-46
2023/07/29 05:28:38;;;;;;;;;;;22.20;88.20;;;;;;4158312;28;20477;-44
2023/07/29 05:31:19;;;;;;;;;;;22.20;88.40;;;;;;4167843;28;19974;-46
2023/07/29 05:33:59;;;;;;;;;;;22.20;88.40;;;;;;4162708;28;19935;-43
2023/07/29 05:36:41;;;;;;;;;;;22.20;88.40;;;;;;4172864;28;19932;-47
2023/07/29 05:39:22;;;;;;;;;;;22.20;88.40;;;;;;4168322;28;19932;-53
2023/07/29 05:42:04;;;;;;;;;;;22.20;88.40;;;;;;4169824;28;19936;-52
2023/07/29 05:44:45;;;;;;;;;;;22.20;88.40;;;;;;4171056;28;20741;-49
2023/07/29 05:47:26;;;;;;;;;;;22.20;89.30;;;;;;4168324;28;19939;-50
2023/07/29 05:50:07;;;;;;;;;;;22.20;88.40;;;;;;4156004;28;19990;-55
2023/07/29 05:52:48;;;;;;;;;;;22.20;88.40;;;;;;4156919;28;19970;-51
2023/07/29 05:55:30;;;;;;;;;;;22.20;88.40;;;;;;4144097;28;19936;-52
2023/07/29 05:58:12;;;;;;;;;;;22.20;88.50;;;;;;4174762;28;20028;-50
2023/07/29 06:00:52;;;;;;;;;;;22.20;88.50;;;;;;4174001;28;19932;-51
2023/07/29 06:03:33;;;;;;;;;;;22.10;88.40;;;;;;4167282;28;19977;-49
2023/07/29 06:06:14;;;;;;;;;;;22.10;88.40;;;;;;4158241;28;19952;-49
2023/07/29 06:08:55;;;;;;;;;;;22.10;88.40;;;;;;4169788;28;19936;-44
2023/07/29 06:11:36;;;;;;;;;;;22.10;88.40;;;;;;4158040;28;19936;-54
2023/07/29 06:14:18;;;;;;;;;;;22.10;88.40;;;;;;4153195;28;19997;-54
2023/07/29 06:17:00;;;;;;;;;;;22.10;88.40;;;;;;4158284;28;20021;-51
2023/07/29 06:19:41;;;;;;;;;;;22.10;88.40;;;;;;4148340;28;19932;-54
2023/07/29 06:22:22;;;;;;;;;;;22.10;88.40;;;;;;4170270;28;20063;-55
2023/07/29 06:25:03;;;;;;;;;;;22.10;88.40;;;;;;4146607;28;19947;-49
2023/07/29 06:27:44;;;;;;;;;;;22.10;88.40;;;;;;4171831;28;19951;-54
2023/07/29 06:30:26;;;;;;;;;;;22.10;89.30;;;;;;4171619;28;20351;-53
2023/07/29 06:33:07;;;;;;;;;;;22.10;88.20;;;;;;4173696;28;19936;-53
2023/07/29 06:35:47;;;;;;;;;;;22.10;87.80;;;;;;4173551;28;19935;-51
2023/07/29 06:38:28;;;;;;;;;;;22.10;87.50;;;;;;4174732;28;19952;-50
2023/07/29 06:41:09;;;;;;;;;;;22.10;87.30;;;;;;4190062;28;20034;-51
2023/07/29 06:43:51;;;;;;;;;;;22.10;87.20;;;;;;4180118;28;19974;-49
2023/07/29 06:46:33;;;;;;;;;;;22.10;87.00;;;;;;4167551;28;19931;-52
2023/07/29 06:49:14;;;;;;;;;;;22.10;87.80;;;;;;4157600;28;19936;-48
2023/07/29 06:51:55;;;;;;;;;;;22.10;86.80;;;;;;4144706;28;19932;-50
2023/07/29 06:54:36;;;;;;;;;;;22.20;86.50;;;;;;4157048;28;20040;-49
2023/07/29 06:57:17;;;;;;;;;;;22.20;86.20;;;;;;4172615;28;19936;-49
2023/07/29 06:59:57;;;;;;;;;;;22.20;86.00;;;;;;4160318;28;20292;-52
2023/07/29 07:02:40;;;;;;;;;;;22.20;85.90;;;;;;4159801;28;20268;-52
2023/07/29 07:05:21;;;;;;;;;;;22.30;86.60;;;;;;4188971;28;19953;-50
2023/07/29 07:08:01;;;;;;;;;;;22.30;85.80;;;;;;4155430;28;19936;-50
2023/07/29 07:10:42;;;;;;;;;;;22.30;86.00;;;;;;4155118;28;19957;-51
2023/07/29 07:13:23;;;;;;;;;;;22.30;86.80;;;;;;4144437;28;19979;-49
2023/07/29 07:16:04;;;;;;;;;;;22.30;85.80;;;;;;4148633;28;19940;-48
2023/07/29 07:18:46;;;;;;;;;;;22.30;85.70;;;;;;4166625;28;19932;-52
2023/07/29 07:21:27;;;;;;;;;;;22.30;85.70;;;;;;4167009;28;20063;-48
2023/07/29 07:24:08;;;;;;;;;;;22.30;85.60;;;;;;4160456;28;19931;-51
2023/07/29 07:26:48;;;;;;;;;;;22.30;85.60;;;;;;4181701;28;19979;-54
2023/07/29 07:29:29;;;;;;;;;;;22.30;85.60;;;;;;4173262;28;20014;-59
2023/07/29 07:32:10;;;;;;;;;;;22.30;86.40;;;;;;4156349;28;20264;-51
2023/07/29 07:34:52;;;;;;;;;;;22.30;85.50;;;;;;4170650;28;19936;-50
2023/07/29 07:37:33;;;;;;;;;;;22.30;85.40;;;;;;4156472;28;19931;-52
2023/07/29 07:40:14;;;;;;;;;;;22.30;85.40;;;;;;4169956;28;19936;-55
2023/07/29 07:42:55;;;;;;;;;;;22.30;85.40;;;;;;4157670;28;19936;-48
2023/07/29 07:45:36;;;;;;;;;;;22.30;85.40;;;;;;4170931;28;19931;-52
2023/07/29 07:48:20;;;;;;;;;;;22.30;86.40;;;;;;4166622;28;20298;-51
2023/07/29 07:51:10;;;;;;;;;;;22.30;85.70;;;;;;4160771;28;19933;-49
2023/07/29 07:53:51;;;;;;;;;;;22.30;85.70;;;;;;4159505;28;19935;-52
2023/07/29 07:56:32;;;;;;;;;;;22.20;85.80;;;;;;4126960;28;19948;-54
2023/07/29 07:59:13;;;;;;;;;;;22.20;86.70;;;;;;4171652;28;20021;-50
2023/07/29 08:01:57;;;;;;;;;;;22.20;85.80;;;;;;4171035;28;19936;-51
2023/07/29 08:04:39;;;;;;;;;;;22.20;85.80;;;;;;4170104;28;19932;-50
2023/07/29 08:07:22;;;;;;;;;;;22.20;85.90;;;;;;4169772;28;20417;-48
2023/07/29 08:10:02;;;;;;;;;;;22.20;85.90;;;;;;4169881;28;20295;-53
2023/07/29 08:12:44;;;;;;;;;;;22.20;85.90;;;;;;4153149;28;20296;-44
2023/07/29 08:15:25;;;;;;;;;;;22.20;86.00;;;;;;4143622;28;20064;-46
2023/07/29 08:18:05;;;;;;;;;;;22.20;86.00;;;;;;4162722;28;19940;-44
2023/07/29 08:20:57;;;;;;;;;;;22.20;85.90;;;;;;4138486;28;19930;-46
2023/07/29 08:23:41;;;;;;;;;;;22.20;85.90;;;;;;4131802;28;19981;-45
2023/07/29 08:26:22;;;;;;;;;;;22.30;85.90;;;;;;4172544;28;20107;-44
2023/07/29 08:29:03;;;;;;;;;;;22.30;85.90;;;;;;4170188;28;20391;-44
2023/07/29 08:31:44;;;;;;;;;;;22.30;85.90;;;;;;4180500;28;19936;-44
2023/07/29 08:34:26;;;;;;;;;;;22.30;85.90;;;;;;4119976;28;20069;-44
2023/07/29 08:37:07;;;;;;;;;;;22.30;85.90;;;;;;4157992;28;20399;-49
2023/07/29 08:39:49;;;;;;;;;;;22.40;86.00;;;;;;4175100;28;19931;-44
2023/07/29 08:42:32;;;;;;;;;;;22.40;86.80;;;;;;4169764;28;20054;-45
2023/07/29 08:45:16;;;;;;;;;;;22.40;85.90;;;;;;4190481;28;19932;-43
2023/07/29 08:48:01;;;;;;;;;;;22.40;85.80;;;;;;4155994;28;20018;-45
2023/07/29 08:50:46;;;;;;;;;;;22.50;85.90;;;;;;4125133;28;19932;-48
2023/07/29 08:53:28;;;;;;;;;;;22.50;85.80;;;;;;4146772;28;20300;-42
2023/07/29 08:56:10;;;;;;;;;;;22.60;85.70;;;;;;4164573;28;19932;-46
2023/07/29 08:58:51;;;;;;;;;;;22.60;85.60;;;;;;4171295;28;19986;-46
2023/07/29 09:01:33;;;;;;;;;;;22.60;85.30;;;;;;4168925;28;20296;-45
2023/07/29 09:04:14;;;;;;;;;;;22.60;84.90;;;;;;4169247;28;20106;-43
2023/07/29 09:06:56;;;;;;;;;;;22.70;84.70;;;;;;4166594;28;19931;-50
2023/07/29 09:09:38;;;;;;;;;;;22.70;84.60;;;;;;4170293;28;19935;-53
2023/07/29 09:12:24;;;;;;;;;;;22.70;84.30;;;;;;4153468;28;19979;-49
2023/07/29 09:15:06;;;;;;;;;;;22.70;84.20;;;;;;4167706;28;19978;-50
2023/07/29 09:17:47;;;;;;;;;;;22.70;84.10;;;;;;4167229;28;20391;-48
2023/07/29 09:20:28;;;;;;;;;;;22.70;84.80;;;;;;4149435;28;19936;-49
2023/07/29 09:23:10;;;;;;;;;;;22.70;83.80;;;;;;4133146;28;19976;-52
2023/07/29 09:25:51;;;;;;;;;;;22.70;83.70;;;;;;4139942;28;19932;-53
2023/07/29 09:28:37;;;;;;;;;;;22.70;83.70;;;;;;4158732;28;19977;-50
2023/07/29 09:31:20;;;;;;;;;;;22.70;83.80;;;;;;4167687;28;20418;-51
2023/07/29 09:34:02;;;;;;;;;;;22.70;83.70;;;;;;4170815;28;19931;-53
2023/07/29 09:36:43;;;;;;;;;;;22.80;83.70;;;;;;4147002;28;19935;-53
2023/07/29 09:39:24;;;;;;;;;;;22.80;83.70;;;;;;4152389;28;20022;-51
2023/07/29 09:42:04;;;;;;;;;;;22.80;84.50;;;;;;4152570;28;19936;-54
2023/07/29 09:44:48;;;;;;;;;;;22.80;83.60;;;;;;4152695;28;19936;-52
2023/07/29 09:47:29;;;;;;;;;;;22.80;83.70;;;;;;4138233;28;20299;-51
2023/07/29 09:50:11;;;;;;;;;;;22.80;84.60;;;;;;4152310;28;20396;-54
2023/07/29 09:52:58;;;;;;;;;;;22.90;83.70;;;;;;4129300;28;19936;-52
2023/07/29 09:55:41;;;;;;;;;;;22.90;83.60;;;;;;4144655;28;19970;-49
2023/07/29 09:58:27;;;;;;;;;;;23.00;83.50;;;;;;4164852;28;20074;-50
2023/07/29 10:01:10;;;;;;;;;;;22.90;83.00;;;;;;4169137;28;19931;-52
2023/07/29 10:03:51;;;;;;;;;;;23.00;82.70;;;;;;4168922;28;19951;-53
2023/07/29 10:06:33;;;;;;;;;;;22.90;82.50;;;;;;4168132;28;20386;-50
2023/07/29 10:09:15;;;;;;;;;;;22.90;82.50;;;;;;4169181;28;20063;-53
2023/07/29 10:11:56;;;;;;;;;;;22.90;82.40;;;;;;4170708;28;19936;-53
2023/07/29 10:14:37;;;;;;;;;;;23.00;82.70;;;;;;4167059;28;19935;-52
2023/07/29 10:17:20;;;;;;;;;;;23.00;82.90;;;;;;4152155;28;20323;-53
2023/07/29 10:20:01;;;;;;;;;;;23.00;82.80;;;;;;4154989;28;19932;-48
2023/07/29 10:22:43;;;;;;;;;;;23.10;83.20;;;;;;4153998;28;20019;-50
2023/07/29 10:25:25;;;;;;;;;;;23.10;83.80;;;;;;4157888;28;19971;-48
2023/07/29 10:28:06;;;;;;;;;;;23.10;83.70;;;;;;4147532;28;19932;-47
2023/07/29 10:30:47;;;;;;;;;;;23.10;83.60;;;;;;4137560;28;20455;-50
2023/07/29 10:33:31;;;;;;;;;;;23.20;83.60;;;;;;4136987;28;20431;-51
2023/07/29 10:36:13;;;;;;;;;;;23.20;82.90;;;;;;4156235;28;19951;-50
2023/07/29 10:38:54;;;;;;;;;;;23.20;83.40;;;;;;4137230;28;20014;-54
2023/07/29 10:41:59;;;;;;;;;;;23.30;82.50;;;;;;4130380;28;19937;-54
2023/07/29 10:44:53;;;;;;;;;;;23.30;82.40;;;;;;4126911;28;19932;-53
2023/07/29 10:47:34;;;;;;;;;;;23.30;82.60;;;;;;4145847;28;19948;-50
2023/07/29 10:50:20;;;;;;;;;;;23.30;83.10;;;;;;4161386;28;19936;-52
2023/07/29 10:53:01;;;;;;;;;;;23.30;83.30;;;;;;4166087;28;19932;-53
2023/07/29 10:55:42;;;;;;;;;;;23.30;82.90;;;;;;4182989;28;19936;-52
2023/07/29 10:58:23;;;;;;;;;;;23.40;82.40;;;;;;4168491;28;19935;-49
2023/07/29 11:01:13;;;;;;;;;;;23.40;82.00;;;;;;4157230;28;20303;-51
2023/07/29 11:04:02;;;;;;;;;;;23.40;81.70;;;;;;4153290;28;19991;-51
2023/07/29 11:06:57;;;;;;;;;;;23.40;81.40;;;;;;4158544;28;20079;-52
2023/07/29 11:09:42;;;;;;;;;;;23.50;81.30;;;;;;4140476;28;20326;-52
2023/07/29 11:12:35;;;;;;;;;;;23.50;81.00;;;;;;4152827;28;19978;-51
2023/07/29 11:15:18;;;;;;;;;;;23.60;80.90;;;;;;4156424;28;20396;-53
2023/07/29 11:17:59;;;;;;;;;;;23.60;80.80;;;;;;4160583;28;19932;-52
2023/07/29 11:20:40;;;;;;;;;;;23.60;80.60;;;;;;4171234;28;19940;-52
2023/07/29 11:23:21;;;;;;;;;;;23.60;80.60;;;;;;4157355;28;20451;-52
2023/07/29 11:26:04;;;;;;;;;;;23.60;80.30;;;;;;4169493;28;19950;-51
2023/07/29 11:28:47;;;;;;;;;;;23.60;80.20;;;;;;4158320;28;20295;-53
2023/07/29 11:31:39;;;;;;;;;;;23.60;80.90;;;;;;4171796;28;20403;-50
2023/07/29 11:34:34;;;;;;;;;;;23.60;80.90;;;;;;4170850;28;19977;-52
2023/07/29 11:37:15;;;;;;;;;;;23.50;80.10;;;;;;4159116;28;20403;-48
2023/07/29 11:39:56;;;;;;;;;;;23.50;80.30;;;;;;4154459;28;19936;-48
2023/07/29 11:42:39;;;;;;;;;;;23.50;80.30;;;;;;4143157;28;20410;-49
2023/07/29 11:45:20;;;;;;;;;;;23.40;80.40;;;;;;4170934;28;19974;-52
2023/07/29 11:48:03;;;;;;;;;;;23.40;80.30;;;;;;4161775;28;19936;-50
2023/07/29 11:50:43;;;;;;;;;;;23.40;81.00;;;;;;4171566;28;19932;-49
2023/07/29 11:53:26;;;;;;;;;;;23.40;80.00;;;;;;4170424;28;19932;-52
2023/07/29 11:56:08;;;;;;;;;;;23.40;79.80;;;;;;4157743;28;20450;-52
2023/07/29 11:58:50;;;;;;;;;;;23.40;79.90;;;;;;4157007;28;19936;-52
2023/07/29 12:01:31;;;;;;;;;;;23.40;79.80;;;;;;4183769;28;19931;-49
2023/07/29 12:04:13;;;;;;;;;;;23.30;79.70;;;;;;4178605;28;20277;-52
2023/07/29 12:06:56;;;;;;;;;;;23.30;79.80;;;;;;4186808;28;19935;-52
2023/07/29 12:09:37;;;;;;;;;;;23.30;79.90;;;;;;4163536;28;19949;-53
2023/07/29 12:12:17;;;;;;;;;;;23.40;80.70;;;;;;4133047;28;19931;-52
2023/07/29 12:15:00;;;;;;;;;;;23.40;82.70;;;;;;4170774;28;20427;-53
2023/07/29 12:17:41;;;;;;;;;;;23.40;82.50;;;;;;4187875;28;19977;-51
2023/07/29 12:20:23;;;;;;;;;;;23.40;82.80;;;;;;4150738;28;19931;-50
2023/07/29 12:23:05;;;;;;;;;;;23.40;82.80;;;;;;4166931;28;20383;-49
2023/07/29 12:25:46;;;;;;;;;;;23.40;83.00;;;;;;4186300;28;20485;-51
2023/07/29 12:28:27;;;;;;;;;;;23.50;83.30;;;;;;4167685;28;20063;-48
2023/07/29 12:31:09;;;;;;;;;;;23.50;83.10;;;;;;4171723;28;19951;-44
2023/07/29 12:33:56;;;;;;;;;;;23.50;82.70;;;;;;4185761;28;20275;-45
2023/07/29 12:36:45;;;;;;;;;;;23.40;82.40;;;;;;4187848;28;19936;-45
2023/07/29 12:39:26;;;;;;;;;;;23.40;82.30;;;;;;4173842;28;20410;-46
2023/07/29 12:42:08;;;;;;;;;;;23.50;82.00;;;;;;4155615;28;19967;-48
2023/07/29 12:44:48;;;;;;;;;;;23.50;81.50;;;;;;4187761;28;20018;-44
2023/07/29 12:47:32;;;;;;;;;;;23.50;81.90;;;;;;4188210;28;20290;-43
2023/07/29 12:50:12;;;;;;;;;;;23.50;80.90;;;;;;4163900;28;19947;-52
2023/07/29 12:52:53;;;;;;;;;;;23.50;80.60;;;;;;4180005;28;20051;-53
2023/07/29 12:55:35;;;;;;;;;;;23.50;81.50;;;;;;4170697;28;19936;-50
2023/07/29 12:58:16;;;;;;;;;;;23.60;80.90;;;;;;4163206;28;19982;-50
2023/07/29 13:00:57;;;;;;;;;;;23.60;81.10;;;;;;4171234;28;19932;-51
2023/07/29 13:03:41;;;;;;;;;;;23.60;82.10;;;;;;4171546;28;20029;-52
2023/07/29 13:06:22;;;;;;;;;;;23.60;80.90;;;;;;4143993;28;20010;-50
2023/07/29 13:09:03;;;;;;;;;;;23.60;80.60;;;;;;4163740;28;20403;-54
2023/07/29 13:11:44;;;;;;;;;;;23.60;81.40;;;;;;4150701;28;19951;-50
2023/07/29 13:14:26;;;;;;;;;;;23.60;80.20;;;;;;4155095;28;19976;-53
2023/07/29 13:17:06;;;;;;;;;;;23.60;80.10;;;;;;4154347;28;19990;-52
2023/07/29 13:19:50;;;;;;;;;;;23.60;80.20;;;;;;4155478;28;19932;-53
2023/07/29 13:22:31;;;;;;;;;;;23.60;80.20;;;;;;4159208;28;20011;-53
2023/07/29 13:25:13;;;;;;;;;;;23.60;80.30;;;;;;4167481;28;19932;-52
2023/07/29 13:27:54;;;;;;;;;;;23.70;80.40;;;;;;4189669;28;19996;-48
2023/07/29 13:30:35;;;;;;;;;;;23.60;80.20;;;;;;4174341;28;20398;-48
2023/07/29 13:33:18;;;;;;;;;;;23.60;80.30;;;;;;4187659;28;20055;-49
2023/07/29 13:36:02;;;;;;;;;;;23.60;80.10;;;;;;4170263;28;19970;-48
2023/07/29 13:38:43;;;;;;;;;;;23.60;79.90;;;;;;4171076;28;20276;-51
2023/07/29 13:41:23;;;;;;;;;;;23.60;80.70;;;;;;4145106;28;20411;-48
2023/07/29 13:44:04;;;;;;;;;;;23.60;79.70;;;;;;4154985;28;20296;-57
2023/07/29 13:46:45;;;;;;;;;;;23.60;79.70;;;;;;4154377;28;19932;-57
2023/07/29 13:49:25;;;;;;;;;;;23.60;79.70;;;;;;4170542;28;19932;-50
2023/07/29 13:52:08;;;;;;;;;;;23.60;79.90;;;;;;4186688;28;20390;-52
2023/07/29 13:54:49;;;;;;;;;;;23.60;80.70;;;;;;4174150;28;19935;-52
2023/07/29 13:57:30;;;;;;;;;;;23.60;81.00;;;;;;4170300;28;19931;-50
2023/07/29 14:00:11;;;;;;;;;;;23.60;81.40;;;;;;4154750;28;19936;-45
2023/07/29 14:02:52;;;;;;;;;;;23.60;81.60;;;;;;4168093;28;19936;-43
2023/07/29 14:05:32;;;;;;;;;;;23.60;81.70;;;;;;4164581;28;20383;-45
2023/07/29 14:08:15;;;;;;;;;;;23.60;81.90;;;;;;4163265;28;19958;-46
2023/07/29 14:10:56;;;;;;;;;;;23.60;81.70;;;;;;4152611;28;20018;-51
2023/07/29 14:13:36;;;;;;;;;;;23.60;81.50;;;;;;4154433;28;19983;-50
2023/07/29 14:16:17;;;;;;;;;;;23.60;81.40;;;;;;4153980;28;19932;-47
2023/07/29 14:18:58;;;;;;;;;;;23.60;81.40;;;;;;4162948;28;19936;-47
2023/07/29 14:21:38;;;;;;;;;;;23.50;81.40;;;;;;4170232;28;20391;-47
2023/07/29 14:24:21;;;;;;;;;;;23.50;81.60;;;;;;4186321;28;20390;-52
2023/07/29 14:27:02;;;;;;;;;;;23.50;81.90;;;;;;4186637;28;19935;-53
2023/07/29 14:29:43;;;;;;;;;;;23.40;82.10;;;;;;4184182;28;20452;-52
2023/07/29 14:32:25;;;;;;;;;;;23.50;82.40;;;;;;4187190;28;19963;-52
2023/07/29 14:35:07;;;;;;;;;;;23.40;82.50;;;;;;4174609;28;19932;-49
2023/07/29 14:37:48;;;;;;;;;;;23.40;82.80;;;;;;4173924;28;20059;-51
2023/07/29 14:40:30;;;;;;;;;;;23.40;83.90;;;;;;4187333;28;20070;-48
2023/07/29 14:43:11;;;;;;;;;;;23.40;83.10;;;;;;4172470;28;19932;-48
2023/07/29 14:45:52;;;;;;;;;;;23.40;83.30;;;;;;4169889;28;19936;-48
2023/07/29 14:48:33;;;;;;;;;;;23.40;83.50;;;;;;4171242;28;19932;-53
2023/07/29 14:51:14;;;;;;;;;;;23.40;83.60;;;;;;4172525;28;19989;-52
2023/07/29 14:53:54;;;;;;;;;;;23.50;83.70;;;;;;4173095;28;20268;-53
2023/07/29 14:56:36;;;;;;;;;;;23.50;83.70;;;;;;4156548;28;19932;-51
2023/07/29 14:59:18;;;;;;;;;;;23.50;83.60;;;;;;4155975;28;20059;-51
2023/07/29 15:01:58;;;;;;;;;;;23.50;83.50;;;;;;4156853;28;20036;-52
2023/07/29 15:04:39;;;;;;;;;;;23.50;83.40;;;;;;4174133;28;20425;-53
2023/07/29 15:07:20;;;;;;;;;;;23.50;83.30;;;;;;4172154;28;19931;-52
2023/07/29 15:10:00;;;;;;;;;;;23.50;83.30;;;;;;4154237;28;20051;-49
2023/07/29 15:12:42;;;;;;;;;;;23.50;83.30;;;;;;4168753;28;19936;-53
2023/07/29 15:15:23;;;;;;;;;;;23.60;83.20;;;;;;4172109;28;19936;-53
2023/07/29 15:18:04;;;;;;;;;;;23.60;83.20;;;;;;4169737;28;20395;-53
2023/07/29 15:20:45;;;;;;;;;;;23.60;83.20;;;;;;4172620;28;19932;-50
2023/07/29 15:23:26;;;;;;;;;;;23.60;83.10;;;;;;4160131;28;19936;-53
2023/07/29 15:26:07;;;;;;;;;;;23.60;83.00;;;;;;4156823;28;19987;-52
2023/07/29 15:28:49;;;;;;;;;;;23.60;82.80;;;;;;4169890;28;19936;-46
2023/07/29 15:31:31;;;;;;;;;;;23.60;82.40;;;;;;4171678;28;19935;-52
2023/07/29 15:34:12;;;;;;;;;;;23.70;82.30;;;;;;4156003;28;19982;-49
2023/07/29 15:36:53;;;;;;;;;;;23.70;82.20;;;;;;4155781;28;19936;-52
2023/07/29 15:39:33;;;;;;;;;;;23.70;81.90;;;;;;4155456;28;19986;-49